sensor_id;sensor_type;location;lat;lon;timestamp;P1;durP1;ratioP1;P2;durP2;ratioP2
12958;SDS011;6544;51.666;6.634;2023-04-24T00:01:03;3.58;;;2.50;;
12958;SDS011;6544;51.666;6.634;2023-04-24T00:03:32;3.60;;;2.45;;
12958;SDS011;6544;51.666;6.634;2023-04-24T00:06:02;3.45;;;2.20;;
12958;SDS011;6544;51.666;6.634;2023-04-24T00:08:29;3.25;;;2.45;;
12958;SDS011;6544;51.666;6.634;2023-04-24T00:10:59;4.32;;;2.35;;
12958;SDS011;6544;51.666;6.634;2023-04-24T00:13:26;6.57;;;2.50;;
12958;SDS011;6544;51.666;6.634;2023-04-24T00:15:54;2.95;;;2.35;;
12958;SDS011;6544;51.666;6.634;2023-04-24T00:18:21;3.05;;;2.40;;
12958;SDS011;6544;51.666;6.634;2023-04-24T00:20:48;3.90;;;2.53;;
12958;SDS011;6544;51.666;6.634;2023-04-24T00:23:15;5.03;;;2.47;;
12958;SDS011;6544;51.666;6.634;2023-04-24T00:25:42;4.43;;;2.72;;
12958;SDS011;6544;51.666;6.634;2023-04-24T00:28:10;3.35;;;2.55;;
12958;SDS011;6544;51.666;6.634;2023-04-24T00:30:37;4.40;;;3.17;;
12958;SDS011;6544;51.666;6.634;2023-04-24T00:33:05;4.00;;;3.03;;
12958;SDS011;6544;51.666;6.634;2023-04-24T00:35:32;4.28;;;2.80;;
12958;SDS011;6544;51.666;6.634;2023-04-24T00:37:59;3.85;;;2.75;;
12958;SDS011;6544;51.666;6.634;2023-04-24T00:40:26;5.00;;;2.97;;
12958;SDS011;6544;51.666;6.634;2023-04-24T00:42:54;3.40;;;3.10;;
12958;SDS011;6544;51.666;6.634;2023-04-24T00:45:23;4.57;;;3.03;;
12958;SDS011;6544;51.666;6.634;2023-04-24T00:47:50;4.07;;;3.20;;
12958;SDS011;6544;51.666;6.634;2023-04-24T00:50:19;3.92;;;3.30;;
12958;SDS011;6544;51.666;6.634;2023-04-24T00:52:47;5.05;;;3.88;;
12958;SDS011;6544;51.666;6.634;2023-04-24T00:55:14;5.90;;;4.05;;
12958;SDS011;6544;51.666;6.634;2023-04-24T00:57:41;5.75;;;4.30;;
12958;SDS011;6544;51.666;6.634;2023-04-24T01:00:09;5.20;;;4.30;;
12958;SDS011;6544;51.666;6.634;2023-04-24T01:02:38;5.20;;;4.05;;
12958;SDS011;6544;51.666;6.634;2023-04-24T01:05:10;5.07;;;4.07;;
12958;SDS011;6544;51.666;6.634;2023-04-24T01:07:38;5.60;;;4.13;;
12958;SDS011;6544;51.666;6.634;2023-04-24T01:10:09;6.97;;;4.38;;
12958;SDS011;6544;51.666;6.634;2023-04-24T01:12:39;4.32;;;3.78;;
12958;SDS011;6544;51.666;6.634;2023-04-24T01:15:06;5.65;;;4.03;;
12958;SDS011;6544;51.666;6.634;2023-04-24T01:17:34;7.93;;;4.00;;
12958;SDS011;6544;51.666;6.634;2023-04-24T01:20:03;4.72;;;3.97;;
12958;SDS011;6544;51.666;6.634;2023-04-24T01:22:33;9.88;;;4.55;;
12958;SDS011;6544;51.666;6.634;2023-04-24T01:25:00;5.68;;;4.47;;
12958;SDS011;6544;51.666;6.634;2023-04-24T01:27:27;8.48;;;4.90;;
12958;SDS011;6544;51.666;6.634;2023-04-24T01:29:54;7.88;;;5.03;;
12958;SDS011;6544;51.666;6.634;2023-04-24T01:32:21;8.23;;;5.00;;
12958;SDS011;6544;51.666;6.634;2023-04-24T01:34:48;7.18;;;4.97;;
12958;SDS011;6544;51.666;6.634;2023-04-24T01:37:16;8.75;;;5.38;;
12958;SDS011;6544;51.666;6.634;2023-04-24T01:39:45;9.85;;;5.45;;
12958;SDS011;6544;51.666;6.634;2023-04-24T01:42:12;6.78;;;5.25;;
12958;SDS011;6544;51.666;6.634;2023-04-24T01:44:39;7.75;;;5.68;;
12958;SDS011;6544;51.666;6.634;2023-04-24T01:47:07;8.05;;;5.55;;
12958;SDS011;6544;51.666;6.634;2023-04-24T01:49:35;9.07;;;6.15;;
12958;SDS011;6544;51.666;6.634;2023-04-24T01:52:03;8.90;;;5.53;;
12958;SDS011;6544;51.666;6.634;2023-04-24T01:54:30;10.98;;;6.00;;
12958;SDS011;6544;51.666;6.634;2023-04-24T01:56:59;8.70;;;6.40;;
12958;SDS011;6544;51.666;6.634;2023-04-24T01:59:27;8.50;;;7.07;;
12958;SDS011;6544;51.666;6.634;2023-04-24T02:01:54;7.40;;;6.20;;
12958;SDS011;6544;51.666;6.634;2023-04-24T02:04:21;9.52;;;6.22;;
12958;SDS011;6544;51.666;6.634;2023-04-24T02:06:48;9.63;;;6.43;;
12958;SDS011;6544;51.666;6.634;2023-04-24T02:09:15;11.43;;;6.07;;
12958;SDS011;6544;51.666;6.634;2023-04-24T02:11:43;8.75;;;6.32;;
12958;SDS011;6544;51.666;6.634;2023-04-24T02:14:11;8.77;;;6.85;;
12958;SDS011;6544;51.666;6.634;2023-04-24T02:16:38;13.88;;;7.38;;
12958;SDS011;6544;51.666;6.634;2023-04-24T02:19:05;10.75;;;7.40;;
12958;SDS011;6544;51.666;6.634;2023-04-24T02:21:32;11.25;;;7.85;;
12958;SDS011;6544;51.666;6.634;2023-04-24T02:23:59;10.50;;;7.53;;
12958;SDS011;6544;51.666;6.634;2023-04-24T02:26:26;12.02;;;8.52;;
12958;SDS011;6544;51.666;6.634;2023-04-24T02:28:52;10.77;;;8.00;;
12958;SDS011;6544;51.666;6.634;2023-04-24T02:31:21;12.00;;;8.75;;
12958;SDS011;6544;51.666;6.634;2023-04-24T02:33:48;12.13;;;8.18;;
12958;SDS011;6544;51.666;6.634;2023-04-24T02:36:15;12.52;;;8.77;;
12958;SDS011;6544;51.666;6.634;2023-04-24T02:38:45;11.50;;;8.32;;
12958;SDS011;6544;51.666;6.634;2023-04-24T02:41:15;13.95;;;8.15;;
12958;SDS011;6544;51.666;6.634;2023-04-24T02:43:42;12.02;;;8.63;;
12958;SDS011;6544;51.666;6.634;2023-04-24T02:46:14;12.20;;;8.57;;
12958;SDS011;6544;51.666;6.634;2023-04-24T02:48:44;13.98;;;9.38;;
12958;SDS011;6544;51.666;6.634;2023-04-24T02:51:11;13.90;;;8.30;;
12958;SDS011;6544;51.666;6.634;2023-04-24T02:53:38;14.30;;;9.68;;
12958;SDS011;6544;51.666;6.634;2023-04-24T02:56:05;10.88;;;9.40;;
12958;SDS011;6544;51.666;6.634;2023-04-24T02:58:32;14.10;;;9.73;;
12958;SDS011;6544;51.666;6.634;2023-04-24T03:00:59;12.02;;;9.75;;
12958;SDS011;6544;51.666;6.634;2023-04-24T03:03:26;12.70;;;9.60;;
12958;SDS011;6544;51.666;6.634;2023-04-24T03:05:55;15.55;;;10.85;;
12958;SDS011;6544;51.666;6.634;2023-04-24T03:08:22;14.00;;;10.35;;
12958;SDS011;6544;51.666;6.634;2023-04-24T03:10:49;14.52;;;10.50;;
12958;SDS011;6544;51.666;6.634;2023-04-24T03:13:16;17.02;;;11.80;;
12958;SDS011;6544;51.666;6.634;2023-04-24T03:15:43;17.83;;;11.82;;
12958;SDS011;6544;51.666;6.634;2023-04-24T03:18:11;17.58;;;11.50;;
12958;SDS011;6544;51.666;6.634;2023-04-24T03:20:38;15.88;;;11.25;;
12958;SDS011;6544;51.666;6.634;2023-04-24T03:23:07;20.33;;;11.30;;
12958;SDS011;6544;51.666;6.634;2023-04-24T03:25:34;16.00;;;10.95;;
12958;SDS011;6544;51.666;6.634;2023-04-24T03:28:00;17.48;;;11.93;;
12958;SDS011;6544;51.666;6.634;2023-04-24T03:30:27;14.73;;;11.85;;
12958;SDS011;6544;51.666;6.634;2023-04-24T03:32:54;21.30;;;12.10;;
12958;SDS011;6544;51.666;6.634;2023-04-24T03:35:21;17.42;;;12.00;;
12958;SDS011;6544;51.666;6.634;2023-04-24T03:37:48;20.15;;;13.52;;
12958;SDS011;6544;51.666;6.634;2023-04-24T03:40:16;17.90;;;11.82;;
12958;SDS011;6544;51.666;6.634;2023-04-24T03:42:43;19.90;;;12.55;;
12958;SDS011;6544;51.666;6.634;2023-04-24T03:45:10;14.57;;;11.73;;
12958;SDS011;6544;51.666;6.634;2023-04-24T03:47:37;18.73;;;12.07;;
12958;SDS011;6544;51.666;6.634;2023-04-24T03:50:04;17.63;;;12.10;;
12958;SDS011;6544;51.666;6.634;2023-04-24T03:52:32;16.70;;;12.38;;
12958;SDS011;6544;51.666;6.634;2023-04-24T03:54:59;17.58;;;11.43;;
12958;SDS011;6544;51.666;6.634;2023-04-24T03:57:27;17.25;;;11.98;;
12958;SDS011;6544;51.666;6.634;2023-04-24T03:59:54;22.15;;;12.10;;
12958;SDS011;6544;51.666;6.634;2023-04-24T04:02:21;19.25;;;11.95;;
12958;SDS011;6544;51.666;6.634;2023-04-24T04:04:48;20.50;;;11.98;;
12958;SDS011;6544;51.666;6.634;2023-04-24T04:07:15;15.75;;;11.95;;
12958;SDS011;6544;51.666;6.634;2023-04-24T04:09:42;16.00;;;11.52;;
12958;SDS011;6544;51.666;6.634;2023-04-24T04:12:12;19.30;;;11.95;;
12958;SDS011;6544;51.666;6.634;2023-04-24T04:14:41;19.02;;;11.52;;
12958;SDS011;6544;51.666;6.634;2023-04-24T04:17:08;17.00;;;12.18;;
12958;SDS011;6544;51.666;6.634;2023-04-24T04:19:35;19.30;;;11.90;;
12958;SDS011;6544;51.666;6.634;2023-04-24T04:22:05;19.33;;;11.38;;
12958;SDS011;6544;51.666;6.634;2023-04-24T04:24:33;14.98;;;10.98;;
12958;SDS011;6544;51.666;6.634;2023-04-24T04:27:02;19.13;;;11.75;;
12958;SDS011;6544;51.666;6.634;2023-04-24T04:29:30;15.95;;;10.75;;
12958;SDS011;6544;51.666;6.634;2023-04-24T04:31:59;14.55;;;10.38;;
12958;SDS011;6544;51.666;6.634;2023-04-24T04:34:26;14.77;;;11.30;;
12958;SDS011;6544;51.666;6.634;2023-04-24T04:36:53;14.38;;;10.50;;
12958;SDS011;6544;51.666;6.634;2023-04-24T04:39:20;13.52;;;10.93;;
12958;SDS011;6544;51.666;6.634;2023-04-24T04:42:00;14.70;;;11.45;;
12958;SDS011;6544;51.666;6.634;2023-04-24T04:44:27;16.42;;;11.93;;
12958;SDS011;6544;51.666;6.634;2023-04-24T04:46:55;16.63;;;11.77;;
12958;SDS011;6544;51.666;6.634;2023-04-24T04:49:25;15.02;;;10.43;;
12958;SDS011;6544;51.666;6.634;2023-04-24T04:51:53;15.05;;;10.82;;
12958;SDS011;6544;51.666;6.634;2023-04-24T04:54:20;15.40;;;10.27;;
12958;SDS011;6544;51.666;6.634;2023-04-24T04:56:49;15.20;;;10.80;;
12958;SDS011;6544;51.666;6.634;2023-04-24T04:59:16;13.20;;;10.32;;
12958;SDS011;6544;51.666;6.634;2023-04-24T05:01:43;14.82;;;10.48;;
12958;SDS011;6544;51.666;6.634;2023-04-24T05:04:10;16.27;;;10.93;;
12958;SDS011;6544;51.666;6.634;2023-04-24T05:06:38;16.65;;;10.30;;
12958;SDS011;6544;51.666;6.634;2023-04-24T05:09:05;17.88;;;10.82;;
12958;SDS011;6544;51.666;6.634;2023-04-24T05:11:32;15.30;;;10.57;;
12958;SDS011;6544;51.666;6.634;2023-04-24T05:13:59;15.50;;;10.77;;
12958;SDS011;6544;51.666;6.634;2023-04-24T05:16:26;15.27;;;10.00;;
12958;SDS011;6544;51.666;6.634;2023-04-24T05:18:53;12.55;;;10.07;;
12958;SDS011;6544;51.666;6.634;2023-04-24T05:21:20;13.45;;;10.18;;
12958;SDS011;6544;51.666;6.634;2023-04-24T05:23:48;14.00;;;9.95;;
12958;SDS011;6544;51.666;6.634;2023-04-24T05:26:15;13.32;;;9.88;;
12958;SDS011;6544;51.666;6.634;2023-04-24T05:28:42;11.45;;;9.52;;
12958;SDS011;6544;51.666;6.634;2023-04-24T05:31:09;12.25;;;8.57;;
12958;SDS011;6544;51.666;6.634;2023-04-24T05:33:37;12.18;;;9.63;;
12958;SDS011;6544;51.666;6.634;2023-04-24T05:39:28;10.93;;;8.30;;
12958;SDS011;6544;51.666;6.634;2023-04-24T05:41:56;10.60;;;8.52;;
12958;SDS011;6544;51.666;6.634;2023-04-24T05:44:23;9.80;;;8.23;;
12958;SDS011;6544;51.666;6.634;2023-04-24T05:46:50;9.95;;;8.18;;
12958;SDS011;6544;51.666;6.634;2023-04-24T05:49:17;12.35;;;8.32;;
12958;SDS011;6544;51.666;6.634;2023-04-24T05:51:44;9.70;;;7.30;;
12958;SDS011;6544;51.666;6.634;2023-04-24T05:54:11;10.60;;;7.70;;
12958;SDS011;6544;51.666;6.634;2023-04-24T05:56:40;10.10;;;8.18;;
12958;SDS011;6544;51.666;6.634;2023-04-24T05:59:06;10.07;;;8.05;;
12958;SDS011;6544;51.666;6.634;2023-04-24T06:01:34;9.95;;;8.02;;
12958;SDS011;6544;51.666;6.634;2023-04-24T06:04:02;9.65;;;8.18;;
12958;SDS011;6544;51.666;6.634;2023-04-24T06:06:29;10.57;;;8.05;;
12958;SDS011;6544;51.666;6.634;2023-04-24T06:08:56;11.02;;;8.32;;
12958;SDS011;6544;51.666;6.634;2023-04-24T06:11:23;10.90;;;8.70;;
12958;SDS011;6544;51.666;6.634;2023-04-24T06:13:52;13.77;;;8.77;;
12958;SDS011;6544;51.666;6.634;2023-04-24T06:16:19;11.60;;;7.82;;
12958;SDS011;6544;51.666;6.634;2023-04-24T06:18:46;10.35;;;7.70;;
12958;SDS011;6544;51.666;6.634;2023-04-24T06:21:13;12.10;;;8.30;;
12958;SDS011;6544;51.666;6.634;2023-04-24T06:23:41;10.52;;;8.50;;
12958;SDS011;6544;51.666;6.634;2023-04-24T06:26:08;12.02;;;9.10;;
12958;SDS011;6544;51.666;6.634;2023-04-24T06:28:35;13.02;;;8.80;;
12958;SDS011;6544;51.666;6.634;2023-04-24T06:31:03;10.93;;;8.90;;
12958;SDS011;6544;51.666;6.634;2023-04-24T06:33:30;11.40;;;8.93;;
12958;SDS011;6544;51.666;6.634;2023-04-24T06:35:57;9.95;;;8.32;;
12958;SDS011;6544;51.666;6.634;2023-04-24T06:38:24;12.13;;;8.43;;
12958;SDS011;6544;51.666;6.634;2023-04-24T06:40:51;10.10;;;8.10;;
12958;SDS011;6544;51.666;6.634;2023-04-24T06:43:18;12.25;;;8.07;;
12958;SDS011;6544;51.666;6.634;2023-04-24T06:45:45;11.07;;;7.18;;
12958;SDS011;6544;51.666;6.634;2023-04-24T06:48:13;9.68;;;7.63;;
12958;SDS011;6544;51.666;6.634;2023-04-24T06:50:40;8.82;;;6.85;;
12958;SDS011;6544;51.666;6.634;2023-04-24T06:53:07;9.95;;;7.22;;
12958;SDS011;6544;51.666;6.634;2023-04-24T06:55:36;8.90;;;7.50;;
12958;SDS011;6544;51.666;6.634;2023-04-24T06:58:08;7.30;;;6.38;;
12958;SDS011;6544;51.666;6.634;2023-04-24T07:00:34;8.25;;;6.60;;
12958;SDS011;6544;51.666;6.634;2023-04-24T07:03:01;8.55;;;7.00;;
12958;SDS011;6544;51.666;6.634;2023-04-24T07:05:31;7.20;;;6.30;;
12958;SDS011;6544;51.666;6.634;2023-04-24T07:08:00;6.68;;;5.97;;
12958;SDS011;6544;51.666;6.634;2023-04-24T07:10:27;7.90;;;5.78;;
12958;SDS011;6544;51.666;6.634;2023-04-24T07:12:54;6.47;;;5.22;;
12958;SDS011;6544;51.666;6.634;2023-04-24T07:15:21;5.90;;;5.10;;
12958;SDS011;6544;51.666;6.634;2023-04-24T07:17:48;6.50;;;5.53;;
12958;SDS011;6544;51.666;6.634;2023-04-24T07:20:15;6.63;;;5.45;;
12958;SDS011;6544;51.666;6.634;2023-04-24T07:22:43;7.15;;;5.30;;
12958;SDS011;6544;51.666;6.634;2023-04-24T07:25:10;5.32;;;4.70;;
12958;SDS011;6544;51.666;6.634;2023-04-24T07:27:37;5.13;;;4.35;;
12958;SDS011;6544;51.666;6.634;2023-04-24T07:30:05;5.13;;;4.43;;
12958;SDS011;6544;51.666;6.634;2023-04-24T07:32:33;5.30;;;4.28;;
12958;SDS011;6544;51.666;6.634;2023-04-24T07:35:00;6.07;;;3.90;;
12958;SDS011;6544;51.666;6.634;2023-04-24T07:37:27;3.92;;;3.30;;
12958;SDS011;6544;51.666;6.634;2023-04-24T07:39:56;4.78;;;3.10;;
12958;SDS011;6544;51.666;6.634;2023-04-24T07:42:23;3.03;;;2.70;;
12958;SDS011;6544;51.666;6.634;2023-04-24T07:44:50;5.43;;;3.10;;
12958;SDS011;6544;51.666;6.634;2023-04-24T07:47:17;3.47;;;2.70;;
12958;SDS011;6544;51.666;6.634;2023-04-24T07:49:44;3.00;;;2.38;;
12958;SDS011;6544;51.666;6.634;2023-04-24T07:52:11;3.78;;;2.67;;
12958;SDS011;6544;51.666;6.634;2023-04-24T07:54:40;3.38;;;2.80;;
12958;SDS011;6544;51.666;6.634;2023-04-24T07:57:09;3.30;;;2.42;;
12958;SDS011;6544;51.666;6.634;2023-04-24T07:59:36;3.47;;;2.40;;
12958;SDS011;6544;51.666;6.634;2023-04-24T08:02:02;2.85;;;2.13;;
12958;SDS011;6544;51.666;6.634;2023-04-24T08:04:31;2.85;;;2.33;;
12958;SDS011;6544;51.666;6.634;2023-04-24T08:06:58;2.20;;;2.00;;
12958;SDS011;6544;51.666;6.634;2023-04-24T08:09:25;2.95;;;2.05;;
12958;SDS011;6544;51.666;6.634;2023-04-24T08:11:52;2.63;;;2.42;;
12958;SDS011;6544;51.666;6.634;2023-04-24T08:14:20;2.45;;;2.25;;
12958;SDS011;6544;51.666;6.634;2023-04-24T08:16:47;3.47;;;2.55;;
12958;SDS011;6544;51.666;6.634;2023-04-24T08:19:14;2.60;;;2.40;;
12958;SDS011;6544;51.666;6.634;2023-04-24T08:21:41;3.33;;;2.70;;
12958;SDS011;6544;51.666;6.634;2023-04-24T08:24:08;4.38;;;2.97;;
12958;SDS011;6544;51.666;6.634;2023-04-24T08:26:35;3.72;;;3.22;;
12958;SDS011;6544;51.666;6.634;2023-04-24T08:29:02;5.55;;;3.33;;
12958;SDS011;6544;51.666;6.634;2023-04-24T08:31:30;7.68;;;3.58;;
12958;SDS011;6544;51.666;6.634;2023-04-24T08:33:57;6.50;;;3.20;;
12958;SDS011;6544;51.666;6.634;2023-04-24T08:36:25;4.78;;;3.00;;
12958;SDS011;6544;51.666;6.634;2023-04-24T08:38:52;4.28;;;2.63;;
12958;SDS011;6544;51.666;6.634;2023-04-24T08:41:19;4.45;;;2.60;;
12958;SDS011;6544;51.666;6.634;2023-04-24T08:43:46;3.97;;;2.17;;
12958;SDS011;6544;51.666;6.634;2023-04-24T08:46:13;2.58;;;2.20;;
12958;SDS011;6544;51.666;6.634;2023-04-24T08:48:43;2.20;;;2.00;;
12958;SDS011;6544;51.666;6.634;2023-04-24T08:51:11;2.35;;;2.15;;
12958;SDS011;6544;51.666;6.634;2023-04-24T08:53:38;1.95;;;1.75;;
12958;SDS011;6544;51.666;6.634;2023-04-24T08:56:06;1.83;;;1.40;;
12958;SDS011;6544;51.666;6.634;2023-04-24T08:58:33;2.88;;;1.55;;
12958;SDS011;6544;51.666;6.634;2023-04-24T09:01:04;2.08;;;1.80;;
12958;SDS011;6544;51.666;6.634;2023-04-24T09:03:31;3.40;;;2.70;;
12958;SDS011;6544;51.666;6.634;2023-04-24T09:06:01;5.97;;;4.20;;
12958;SDS011;6544;51.666;6.634;2023-04-24T09:08:29;6.70;;;5.30;;
12958;SDS011;6544;51.666;6.634;2023-04-24T09:10:56;6.85;;;6.15;;
12958;SDS011;6544;51.666;6.634;2023-04-24T09:13:27;8.18;;;6.47;;
12958;SDS011;6544;51.666;6.634;2023-04-24T09:15:54;8.85;;;6.85;;
12958;SDS011;6544;51.666;6.634;2023-04-24T09:18:22;10.10;;;6.95;;
12958;SDS011;6544;51.666;6.634;2023-04-24T09:20:59;9.70;;;8.05;;
12958;SDS011;6544;51.666;6.634;2023-04-24T09:23:28;11.82;;;8.13;;
12958;SDS011;6544;51.666;6.634;2023-04-24T09:25:56;9.13;;;7.47;;
12958;SDS011;6544;51.666;6.634;2023-04-24T09:28:25;11.43;;;7.50;;
12958;SDS011;6544;51.666;6.634;2023-04-24T09:31:06;10.07;;;7.28;;
12958;SDS011;6544;51.666;6.634;2023-04-24T09:33:34;8.88;;;7.47;;
12958;SDS011;6544;51.666;6.634;2023-04-24T09:36:03;10.13;;;7.15;;
12958;SDS011;6544;51.666;6.634;2023-04-24T09:38:31;13.05;;;7.65;;
12958;SDS011;6544;51.666;6.634;2023-04-24T09:40:59;11.38;;;7.63;;
12958;SDS011;6544;51.666;6.634;2023-04-24T09:43:28;10.77;;;7.03;;
12958;SDS011;6544;51.666;6.634;2023-04-24T09:45:55;10.95;;;7.50;;
12958;SDS011;6544;51.666;6.634;2023-04-24T09:48:30;8.93;;;7.80;;
12958;SDS011;6544;51.666;6.634;2023-04-24T09:50:58;11.82;;;7.68;;
12958;SDS011;6544;51.666;6.634;2023-04-24T09:53:27;10.20;;;7.90;;
12958;SDS011;6544;51.666;6.634;2023-04-24T09:55:54;9.38;;;8.32;;
12958;SDS011;6544;51.666;6.634;2023-04-24T09:58:24;11.23;;;8.15;;
12958;SDS011;6544;51.666;6.634;2023-04-24T10:00:54;10.77;;;8.35;;
12958;SDS011;6544;51.666;6.634;2023-04-24T10:03:23;11.05;;;8.15;;
12958;SDS011;6544;51.666;6.634;2023-04-24T10:05:52;12.43;;;8.25;;
12958;SDS011;6544;51.666;6.634;2023-04-24T10:08:20;13.63;;;8.32;;
12958;SDS011;6544;51.666;6.634;2023-04-24T10:10:49;12.55;;;8.23;;
12958;SDS011;6544;51.666;6.634;2023-04-24T10:13:17;11.32;;;7.70;;
12958;SDS011;6544;51.666;6.634;2023-04-24T10:15:44;13.63;;;7.03;;
12958;SDS011;6544;51.666;6.634;2023-04-24T10:18:12;11.43;;;6.80;;
12958;SDS011;6544;51.666;6.634;2023-04-24T10:20:39;12.60;;;6.03;;
12958;SDS011;6544;51.666;6.634;2023-04-24T10:23:06;13.82;;;5.60;;
12958;SDS011;6544;51.666;6.634;2023-04-24T10:25:34;16.58;;;5.47;;
12958;SDS011;6544;51.666;6.634;2023-04-24T10:28:04;17.70;;;5.35;;
12958;SDS011;6544;51.666;6.634;2023-04-24T10:30:32;13.73;;;5.40;;
12958;SDS011;6544;51.666;6.634;2023-04-24T10:33:14;13.05;;;5.32;;
12958;SDS011;6544;51.666;6.634;2023-04-24T10:35:45;20.17;;;5.60;;
12958;SDS011;6544;51.666;6.634;2023-04-24T10:38:16;15.55;;;5.43;;
12958;SDS011;6544;51.666;6.634;2023-04-24T10:40:49;20.42;;;5.78;;
12958;SDS011;6544;51.666;6.634;2023-04-24T10:43:17;21.02;;;5.93;;
12958;SDS011;6544;51.666;6.634;2023-04-24T10:45:59;15.55;;;5.32;;
12958;SDS011;6544;51.666;6.634;2023-04-24T10:48:27;16.77;;;5.20;;
12958;SDS011;6544;51.666;6.634;2023-04-24T10:50:54;13.68;;;4.72;;
12958;SDS011;6544;51.666;6.634;2023-04-24T10:53:22;17.85;;;5.35;;
12958;SDS011;6544;51.666;6.634;2023-04-24T10:55:52;13.93;;;4.32;;
12958;SDS011;6544;51.666;6.634;2023-04-24T10:58:35;12.90;;;4.05;;
12958;SDS011;6544;51.666;6.634;2023-04-24T11:01:03;9.88;;;3.83;;
12958;SDS011;6544;51.666;6.634;2023-04-24T11:03:31;16.52;;;3.97;;
12958;SDS011;6544;51.666;6.634;2023-04-24T11:06:00;11.55;;;3.53;;
12958;SDS011;6544;51.666;6.634;2023-04-24T11:08:29;10.98;;;3.70;;
12958;SDS011;6544;51.666;6.634;2023-04-24T11:10:58;13.13;;;4.18;;
12958;SDS011;6544;51.666;6.634;2023-04-24T11:16:29;10.95;;;3.83;;
12958;SDS011;6544;51.666;6.634;2023-04-24T11:19:01;12.02;;;3.65;;
12958;SDS011;6544;51.666;6.634;2023-04-24T11:21:40;10.48;;;3.63;;
12958;SDS011;6544;51.666;6.634;2023-04-24T11:24:24;13.82;;;3.75;;
12958;SDS011;6544;51.666;6.634;2023-04-24T11:26:57;7.10;;;2.88;;
12958;SDS011;6544;51.666;6.634;2023-04-24T11:29:44;8.18;;;3.00;;
12958;SDS011;6544;51.666;6.634;2023-04-24T11:32:22;9.45;;;2.67;;
12958;SDS011;6544;51.666;6.634;2023-04-24T11:34:51;9.48;;;2.88;;
12958;SDS011;6544;51.666;6.634;2023-04-24T11:37:19;6.40;;;2.53;;
12958;SDS011;6544;51.666;6.634;2023-04-24T11:39:50;7.53;;;2.15;;
12958;SDS011;6544;51.666;6.634;2023-04-24T11:42:18;6.35;;;2.83;;
12958;SDS011;6544;51.666;6.634;2023-04-24T11:44:47;8.52;;;2.42;;
12958;SDS011;6544;51.666;6.634;2023-04-24T11:47:15;5.20;;;2.60;;
12958;SDS011;6544;51.666;6.634;2023-04-24T11:49:43;7.78;;;2.20;;
12958;SDS011;6544;51.666;6.634;2023-04-24T11:52:10;9.25;;;2.90;;
12958;SDS011;6544;51.666;6.634;2023-04-24T11:54:37;6.38;;;2.63;;
12958;SDS011;6544;51.666;6.634;2023-04-24T11:57:04;9.55;;;2.83;;
12958;SDS011;6544;51.666;6.634;2023-04-24T11:59:36;8.20;;;2.30;;
12958;SDS011;6544;51.666;6.634;2023-04-24T12:02:05;4.32;;;1.83;;
12958;SDS011;6544;51.666;6.634;2023-04-24T12:04:38;7.65;;;2.25;;
12958;SDS011;6544;51.666;6.634;2023-04-24T12:07:18;6.57;;;2.10;;
12958;SDS011;6544;51.666;6.634;2023-04-24T12:09:46;5.10;;;2.20;;
12958;SDS011;6544;51.666;6.634;2023-04-24T12:12:14;5.38;;;2.25;;
12958;SDS011;6544;51.666;6.634;2023-04-24T12:14:43;5.68;;;2.58;;
12958;SDS011;6544;51.666;6.634;2023-04-24T12:17:15;6.72;;;2.20;;
12958;SDS011;6544;51.666;6.634;2023-04-24T12:19:46;5.05;;;2.00;;
12958;SDS011;6544;51.666;6.634;2023-04-24T12:22:13;4.50;;;1.85;;
12958;SDS011;6544;51.666;6.634;2023-04-24T12:24:59;5.50;;;2.10;;
12958;SDS011;6544;51.666;6.634;2023-04-24T12:27:31;2.90;;;1.90;;
12958;SDS011;6544;51.666;6.634;2023-04-24T12:29:59;5.30;;;1.95;;
12958;SDS011;6544;51.666;6.634;2023-04-24T12:32:28;9.82;;;2.10;;
12958;SDS011;6544;51.666;6.634;2023-04-24T12:34:56;5.72;;;2.00;;
12958;SDS011;6544;51.666;6.634;2023-04-24T12:37:23;4.25;;;2.22;;
12958;SDS011;6544;51.666;6.634;2023-04-24T12:40:01;4.95;;;2.40;;
12958;SDS011;6544;51.666;6.634;2023-04-24T12:42:30;5.55;;;2.42;;
12958;SDS011;6544;51.666;6.634;2023-04-24T12:44:57;8.45;;;2.17;;
12958;SDS011;6544;51.666;6.634;2023-04-24T12:47:25;5.28;;;2.20;;
12958;SDS011;6544;51.666;6.634;2023-04-24T12:50:00;7.10;;;2.75;;
12958;SDS011;6544;51.666;6.634;2023-04-24T12:52:28;4.63;;;2.35;;
12958;SDS011;6544;51.666;6.634;2023-04-24T12:54:56;6.32;;;2.75;;
12958;SDS011;6544;51.666;6.634;2023-04-24T12:57:25;5.80;;;2.20;;
12958;SDS011;6544;51.666;6.634;2023-04-24T12:59:53;8.95;;;2.60;;
12958;SDS011;6544;51.666;6.634;2023-04-24T13:02:20;5.30;;;2.15;;
12958;SDS011;6544;51.666;6.634;2023-04-24T13:04:47;6.28;;;2.65;;
12958;SDS011;6544;51.666;6.634;2023-04-24T13:07:16;5.47;;;2.35;;
12958;SDS011;6544;51.666;6.634;2023-04-24T13:09:43;5.82;;;2.20;;
12958;SDS011;6544;51.666;6.634;2023-04-24T13:12:11;4.22;;;2.42;;
12958;SDS011;6544;51.666;6.634;2023-04-24T13:14:39;7.63;;;2.22;;
12958;SDS011;6544;51.666;6.634;2023-04-24T13:17:06;2.70;;;1.90;;
12958;SDS011;6544;51.666;6.634;2023-04-24T13:19:35;6.00;;;2.13;;
12958;SDS011;6544;51.666;6.634;2023-04-24T13:22:03;4.35;;;2.00;;
12958;SDS011;6544;51.666;6.634;2023-04-24T13:24:32;5.18;;;2.25;;
12958;SDS011;6544;51.666;6.634;2023-04-24T13:26:59;4.20;;;2.47;;
12958;SDS011;6544;51.666;6.634;2023-04-24T13:29:27;4.13;;;2.28;;
12958;SDS011;6544;51.666;6.634;2023-04-24T13:31:54;5.05;;;2.28;;
12958;SDS011;6544;51.666;6.634;2023-04-24T13:34:22;4.03;;;2.30;;
12958;SDS011;6544;51.666;6.634;2023-04-24T13:36:49;5.10;;;2.30;;
12958;SDS011;6544;51.666;6.634;2023-04-24T13:39:17;4.57;;;2.20;;
12958;SDS011;6544;51.666;6.634;2023-04-24T13:41:45;4.80;;;2.20;;
12958;SDS011;6544;51.666;6.634;2023-04-24T13:44:13;4.47;;;2.20;;
12958;SDS011;6544;51.666;6.634;2023-04-24T13:46:40;5.18;;;2.20;;
12958;SDS011;6544;51.666;6.634;2023-04-24T13:49:08;4.38;;;2.58;;
12958;SDS011;6544;51.666;6.634;2023-04-24T13:51:35;7.97;;;2.80;;
12958;SDS011;6544;51.666;6.634;2023-04-24T13:54:02;5.13;;;2.40;;
12958;SDS011;6544;51.666;6.634;2023-04-24T13:56:29;6.93;;;2.70;;
12958;SDS011;6544;51.666;6.634;2023-04-24T13:58:57;5.70;;;2.83;;
12958;SDS011;6544;51.666;6.634;2023-04-24T14:01:25;6.97;;;2.75;;
12958;SDS011;6544;51.666;6.634;2023-04-24T14:03:52;9.02;;;3.30;;
12958;SDS011;6544;51.666;6.634;2023-04-24T14:06:20;6.85;;;2.70;;
12958;SDS011;6544;51.666;6.634;2023-04-24T14:08:50;9.30;;;2.83;;
12958;SDS011;6544;51.666;6.634;2023-04-24T14:11:18;4.53;;;2.53;;
12958;SDS011;6544;51.666;6.634;2023-04-24T14:13:45;4.70;;;2.50;;
12958;SDS011;6544;51.666;6.634;2023-04-24T14:16:14;5.22;;;2.67;;
12958;SDS011;6544;51.666;6.634;2023-04-24T14:18:41;4.90;;;2.80;;
12958;SDS011;6544;51.666;6.634;2023-04-24T14:21:09;4.93;;;2.80;;
12958;SDS011;6544;51.666;6.634;2023-04-24T14:23:36;5.85;;;2.70;;
12958;SDS011;6544;51.666;6.634;2023-04-24T14:26:03;6.65;;;2.90;;
12958;SDS011;6544;51.666;6.634;2023-04-24T14:28:30;6.22;;;2.85;;
12958;SDS011;6544;51.666;6.634;2023-04-24T14:30:57;5.82;;;2.97;;
12958;SDS011;6544;51.666;6.634;2023-04-24T14:33:25;6.03;;;2.42;;
12958;SDS011;6544;51.666;6.634;2023-04-24T14:35:52;6.30;;;2.95;;
12958;SDS011;6544;51.666;6.634;2023-04-24T14:38:19;5.13;;;2.83;;
12958;SDS011;6544;51.666;6.634;2023-04-24T14:40:46;3.17;;;2.30;;
12958;SDS011;6544;51.666;6.634;2023-04-24T14:43:13;3.55;;;2.17;;
12958;SDS011;6544;51.666;6.634;2023-04-24T14:45:40;4.07;;;2.15;;
12958;SDS011;6544;51.666;6.634;2023-04-24T14:48:07;5.45;;;2.15;;
12958;SDS011;6544;51.666;6.634;2023-04-24T14:50:35;2.50;;;2.05;;
12958;SDS011;6544;51.666;6.634;2023-04-24T14:53:02;3.33;;;1.80;;
12958;SDS011;6544;51.666;6.634;2023-04-24T14:55:30;7.25;;;2.10;;
12958;SDS011;6544;51.666;6.634;2023-04-24T14:58:00;5.07;;;2.10;;
12958;SDS011;6544;51.666;6.634;2023-04-24T15:00:27;4.97;;;2.67;;
12958;SDS011;6544;51.666;6.634;2023-04-24T15:02:54;3.50;;;1.80;;
12958;SDS011;6544;51.666;6.634;2023-04-24T15:05:21;4.95;;;2.30;;